Time;durP1;ratioP1;P1;durP2;ratioP2;P2;SDS_P1;SDS_P2;PMS_P1;PMS_P2;Temp;Humidity;BMP_temperature;BMP_pressure;BME280_temperature;BME280_humidity;BME280_pressure;Samples;Min_cycle;Max_cycle;Signal;HPM_P1;HPM_P2
2019/09/13 00:00:52;;;;;;;6.7;5.5;;;;;;;13.38;100;96621.54;;;;
2019/09/13 00:01:57;;;;;;;6.050001;5.45;;;;;;;13.39;100;96624.58;;;;
2019/09/13 00:02:58;;;;;;;6.050001;5.45;;;;;;;13.39;100;96624.58;;;;
2019/09/13 00:03:59;;;;;;;6.050001;5.45;;;;;;;13.39;100;96624.58;;;;
2019/09/13 00:05:00;;;;;;;5.950001;5.349999;;;;;;;13.4;100;96623.1;;;;
2019/09/13 00:06:03;;;;;;;5.950001;5.349999;;;;;;;13.4;100;96623.1;;;;
2019/09/13 00:07:05;;;;;;;6.350001;5.649999;;;;;;;13.4;100;96626.35;;;;
2019/09/13 00:08:06;;;;;;;6.350001;5.649999;;;;;;;13.4;100;96626.35;;;;
2019/09/13 00:09:07;;;;;;;6.350001;5.649999;;;;;;;13.4;100;96626.35;;;;
2019/09/13 00:10:09;;;;;;;6.349999;5.749999;;;;;;;13.39;100;96625.51;;;;
2019/09/13 00:11:11;;;;;;;6.349999;5.749999;;;;;;;13.39;100;96625.51;;;;
2019/09/13 00:12:12;;;;;;;7.05;5.550001;;;;;;;13.37;100;96618.11;;;;
2019/09/13 00:13:14;;;;;;;7.05;5.550001;;;;;;;13.37;100;96618.11;;;;
2019/09/13 00:14:15;;;;;;;7.05;5.550001;;;;;;;13.37;100;96618.11;;;;
2019/09/13 00:15:16;;;;;;;6.149999;5.65;;;;;;;13.36;100;96625.97;;;;
2019/09/13 00:16:18;;;;;;;6.149999;5.65;;;;;;;13.36;100;96625.97;;;;
2019/09/13 00:17:19;;;;;;;6.149999;5.65;;;;;;;13.36;100;96625.97;;;;
2019/09/13 00:18:20;;;;;;;6.199999;5.649999;;;;;;;13.34;100;96625.35;;;;
2019/09/13 00:19:22;;;;;;;6.199999;5.649999;;;;;;;13.34;100;96625.35;;;;
2019/09/13 00:20:23;;;;;;;6.900001;6.05;;;;;;;13.33;100;96623.28;;;;
2019/09/13 00:21:25;;;;;;;6.900001;6.05;;;;;;;13.33;100;96623.28;;;;
2019/09/13 00:22:26;;;;;;;6.900001;6.05;;;;;;;13.33;100;96623.28;;;;
2019/09/13 00:23:27;;;;;;;8;5.7;;;;;;;13.31;100;96629.46;;;;
2019/09/13 00:24:29;;;;;;;8;5.7;;;;;;;13.31;100;96629.46;;;;
2019/09/13 00:25:30;;;;;;;6.550001;5.849999;;;;;;;13.29;100;96627.06;;;;
2019/09/13 00:26:34;;;;;;;6.550001;5.849999;;;;;;;13.29;100;96627.06;;;;
2019/09/13 00:27:35;;;;;;;6.550001;5.849999;;;;;;;13.29;100;96627.06;;;;
2019/09/13 00:28:36;;;;;;;6.149999;5.649999;;;;;;;13.27;100;96628.22;;;;
2019/09/13 00:29:37;;;;;;;6.149999;5.649999;;;;;;;13.27;100;96628.22;;;;
2019/09/13 00:30:39;;;;;;;6.149999;5.649999;;;;;;;13.27;100;96628.22;;;;
2019/09/13 00:31:42;;;;;;;6.649999;6;;;;;;;13.25;100;96630.31;;;;
2019/09/13 00:32:43;;;;;;;6.649999;6;;;;;;;13.25;100;96630.31;;;;
2019/09/13 00:33:45;;;;;;;6.55;5.950001;;;;;;;13.25;100;96629.89;;;;
2019/09/13 00:34:46;;;;;;;6.55;5.950001;;;;;;;13.25;100;96629.89;;;;
2019/09/13 00:35:47;;;;;;;6.55;5.950001;;;;;;;13.25;100;96629.89;;;;
2019/09/13 00:37:24;;;;;;;8.4;6.349999;;;;;;;13.22;100;96623.44;;;;
2019/09/13 00:38:25;;;;;;;8.4;6.349999;;;;;;;13.22;100;96623.44;;;;
2019/09/13 00:39:26;;;;;;;6.299999;5.750001;;;;;;;13.21;100;96629.5;;;;
2019/09/13 00:40:28;;;;;;;6.299999;5.750001;;;;;;;13.21;100;96629.5;;;;
2019/09/13 00:41:29;;;;;;;6.25;5.65;;;;;;;13.2;100;96629.74;;;;
2019/09/13 00:42:30;;;;;;;6.25;5.65;;;;;;;13.2;100;96629.74;;;;
2019/09/13 00:43:32;;;;;;;6.25;5.65;;;;;;;13.2;100;96629.74;;;;
2019/09/13 00:44:33;;;;;;;6.2;5.65;;;;;;;13.18;100;96630.89;;;;
2019/09/13 00:45:34;;;;;;;6.2;5.65;;;;;;;13.18;100;96630.89;;;;
2019/09/13 00:46:35;;;;;;;6.2;5.65;;;;;;;13.18;100;96630.89;;;;
2019/09/13 00:47:40;;;;;;;7.55;6.149999;;;;;;;13.16;100;96633.4;;;;
2019/09/13 00:48:41;;;;;;;7.55;6.149999;;;;;;;13.16;100;96633.4;;;;
2019/09/13 00:49:42;;;;;;;6.5;5.900001;;;;;;;13.14;100;96632.79;;;;
2019/09/13 00:50:43;;;;;;;6.5;5.900001;;;;;;;13.14;100;96632.79;;;;
2019/09/13 00:51:45;;;;;;;6.5;5.900001;;;;;;;13.14;100;96632.79;;;;
2019/09/13 00:52:46;;;;;;;6.55;5.849999;;;;;;;13.12;100;96631.23;;;;
2019/09/13 00:53:48;;;;;;;6.55;5.849999;;;;;;;13.12;100;96631.23;;;;
2019/09/13 00:54:49;;;;;;;6.299999;5.700001;;;;;;;13.09;100;96628.98;;;;
2019/09/13 00:55:50;;;;;;;6.299999;5.700001;;;;;;;13.09;100;96628.98;;;;
2019/09/13 00:56:51;;;;;;;6.299999;5.700001;;;;;;;13.09;100;96628.98;;;;
2019/09/13 00:57:52;;;;;;;6.65;5.95;;;;;;;13.05;100;96629.1;;;;
2019/09/13 00:58:54;;;;;;;6.65;5.95;;;;;;;13.05;100;96629.1;;;;
2019/09/13 00:59:55;;;;;;;6;5.5;;;;;;;13;100;96639.73;;;;
2019/09/13 01:00:56;;;;;;;6;5.5;;;;;;;13;100;96639.73;;;;
2019/09/13 01:01:57;;;;;;;6;5.5;;;;;;;13;100;96639.73;;;;
2019/09/13 01:02:59;;;;;;;7.4;5.95;;;;;;;12.96;100;96641.22;;;;
2019/09/13 01:04:00;;;;;;;7.4;5.95;;;;;;;12.96;100;96641.22;;;;
2019/09/13 01:05:02;;;;;;;7.4;5.95;;;;;;;12.96;100;96641.22;;;;
2019/09/13 01:06:04;;;;;;;7.05;6.349999;;;;;;;12.92;100;96638.2;;;;
2019/09/13 01:07:06;;;;;;;7.05;6.349999;;;;;;;12.92;100;96638.2;;;;
2019/09/13 01:08:07;;;;;;;7;5.7;;;;;;;12.87;100;96637.52;;;;
2019/09/13 01:09:08;;;;;;;7;5.7;;;;;;;12.87;100;96637.52;;;;
2019/09/13 01:10:10;;;;;;;7;5.7;;;;;;;12.87;100;96637.52;;;;
2019/09/13 01:11:12;;;;;;;6.3;5.699999;;;;;;;12.83;100;96638.16;;;;
2019/09/13 01:12:13;;;;;;;6.3;5.699999;;;;;;;12.83;100;96638.16;;;;
2019/09/13 01:13:14;;;;;;;7.400001;6.4;;;;;;;12.79;100;96636.4;;;;
2019/09/13 01:14:16;;;;;;;7.400001;6.4;;;;;;;12.79;100;96636.4;;;;
2019/09/13 01:15:17;;;;;;;7.400001;6.4;;;;;;;12.79;100;96636.4;;;;
2019/09/13 01:16:20;;;;;;;6.45;5.800001;;;;;;;12.76;100;96631;;;;
2019/09/13 01:17:22;;;;;;;6.45;5.800001;;;;;;;12.76;100;96631;;;;
2019/09/13 01:18:23;;;;;;;6.45;5.800001;;;;;;;12.76;100;96631;;;;
2019/09/13 01:19:24;;;;;;;6.400001;5.800001;;;;;;;12.72;100;96629.35;;;;
2019/09/13 01:20:25;;;;;;;6.400001;5.800001;;;;;;;12.72;100;96629.35;;;;
2019/09/13 01:21:28;;;;;;;6.750001;6.05;;;;;;;12.69;100;96630.63;;;;
2019/09/13 01:22:30;;;;;;;6.750001;6.05;;;;;;;12.69;100;96630.63;;;;
2019/09/13 01:23:31;;;;;;;6.750001;6.05;;;;;;;12.69;100;96630.63;;;;
2019/09/13 01:24:33;;;;;;;6.8;6;;;;;;;12.67;100;96627.81;;;;
2019/09/13 01:25:34;;;;;;;6.8;6;;;;;;;12.67;100;96627.81;;;;
2019/09/13 01:26:35;;;;;;;6.6;5.950001;;;;;;;12.64;100;96624.61;;;;
2019/09/13 01:27:36;;;;;;;6.6;5.950001;;;;;;;12.64;100;96624.61;;;;
2019/09/13 01:28:38;;;;;;;6.6;5.950001;;;;;;;12.64;100;96624.61;;;;
2019/09/13 01:29:39;;;;;;;6.7;6.05;;;;;;;12.62;100;96625.76;;;;
2019/09/13 01:30:40;;;;;;;6.7;6.05;;;;;;;12.62;100;96625.76;;;;
2019/09/13 01:31:43;;;;;;;6.55;5.95;;;;;;;12.59;100;96620.37;;;;
2019/09/13 01:32:44;;;;;;;6.55;5.95;;;;;;;12.59;100;96620.37;;;;
2019/09/13 01:33:45;;;;;;;6.55;5.95;;;;;;;12.59;100;96620.37;;;;
2019/09/13 01:34:46;;;;;;;6.8;6.199999;;;;;;;12.56;100;96628.49;;;;
2019/09/13 01:35:47;;;;;;;6.8;6.199999;;;;;;;12.56;100;96628.49;;;;
2019/09/13 01:36:49;;;;;;;6.8;6.199999;;;;;;;12.56;100;96628.49;;;;
2019/09/13 01:37:50;;;;;;;6.4;5.8;;;;;;;12.53;100;96628.92;;;;
2019/09/13 01:38:52;;;;;;;6.4;5.8;;;;;;;12.53;100;96628.92;;;;
2019/09/13 01:39:53;;;;;;;6.55;5.7;;;;;;;12.5;100;96628.02;;;;
2019/09/13 01:40:54;;;;;;;6.55;5.7;;;;;;;12.5;100;96628.02;;;;
2019/09/13 01:41:56;;;;;;;6.55;5.7;;;;;;;12.5;100;96628.02;;;;
2019/09/13 01:42:57;;;;;;;6.45;5.849999;;;;;;;12.46;100;96624.9;;;;
2019/09/13 01:43:58;;;;;;;6.45;5.849999;;;;;;;12.46;100;96624.9;;;;
2019/09/13 01:44:59;;;;;;;6.849999;6.100001;;;;;;;12.43;100;96628.44;;;;
2019/09/13 01:46:00;;;;;;;6.849999;6.100001;;;;;;;12.43;100;96628.44;;;;
2019/09/13 01:47:02;;;;;;;6.849999;6.100001;;;;;;;12.43;100;96628.44;;;;
2019/09/13 01:48:03;;;;;;;6.4;5.75;;;;;;;12.4;100;96624.81;;;;
2019/09/13 01:49:05;;;;;;;6.4;5.75;;;;;;;12.4;100;96624.81;;;;
2019/09/13 01:50:06;;;;;;;6.4;5.75;;;;;;;12.4;100;96624.81;;;;
2019/09/13 01:51:08;;;;;;;6.4;5.75;;;;;;;12.4;100;96624.81;;;;
2019/09/13 01:52:10;;;;;;;6.4;5.75;;;;;;;12.4;100;96624.81;;;;
2019/09/13 01:53:11;;;;;;;6.4;5.75;;;;;;;12.4;100;96624.81;;;;
2019/09/13 01:54:13;;;;;;;6.4;5.75;;;;;;;12.4;100;96624.81;;;;
2019/09/13 01:55:14;;;;;;;6.4;5.75;;;;;;;12.4;100;96624.81;;;;
2019/09/13 01:56:18;;;;;;;6.4;5.75;;;;;;;12.4;100;96624.81;;;;
2019/09/13 01:57:19;;;;;;;6.4;5.75;;;;;;;12.4;100;96624.81;;;;
2019/09/13 01:58:20;;;;;;;6.45;5.849999;;;;;;;11.98;100;96619;;;;
2019/09/13 01:59:22;;;;;;;6.45;5.849999;;;;;;;11.98;100;96619;;;;
2019/09/13 02:00:23;;;;;;;6.45;5.849999;;;;;;;11.98;100;96619;;;;
2019/09/13 02:01:26;;;;;;;6.250001;5.65;;;;;;;11.96;100;96625.27;;;;
2019/09/13 02:02:27;;;;;;;6.250001;5.65;;;;;;;11.96;100;96625.27;;;;
2019/09/13 02:03:28;;;;;;;7.95;6.299999;;;;;;;11.98;100;96626.7;;;;
2019/09/13 02:04:29;;;;;;;7.95;6.299999;;;;;;;11.98;100;96626.7;;;;
2019/09/13 02:05:30;;;;;;;7.95;6.299999;;;;;;;11.98;100;96626.7;;;;
2019/09/13 02:06:31;;;;;;;6.849999;6.149999;;;;;;;12.01;100;96625.45;;;;
2019/09/13 02:07:33;;;;;;;6.849999;6.149999;;;;;;;12.01;100;96625.45;;;;
2019/09/13 02:08:34;;;;;;;6.849999;6.149999;;;;;;;12.01;100;96625.45;;;;
2019/09/13 02:09:36;;;;;;;6.849999;6.149999;;;;;;;12.01;100;96625.45;;;;
2019/09/13 02:10:37;;;;;;;6.849999;6.149999;;;;;;;12.01;100;96625.45;;;;
2019/09/13 02:11:38;;;;;;;6.849999;6.149999;;;;;;;12.01;100;96625.45;;;;
2019/09/13 02:12:40;;;;;;;6.849999;6.149999;;;;;;;12.01;100;96625.45;;;;
2019/09/13 02:13:41;;;;;;;6.849999;6.149999;;;;;;;12.01;100;96625.45;;;;
2019/09/13 02:14:42;;;;;;;6.849999;6.149999;;;;;;;12.01;100;96625.45;;;;
2019/09/13 02:15:51;;;;;;;6.849999;6.149999;;;;;;;12.01;100;96625.45;;;;
2019/09/13 02:16:59;;;;;;;7.600001;6.9;;;;;;;11.73;100;96617.17;;;;
2019/09/13 02:18:01;;;;;;;7.600001;6.9;;;;;;;11.73;100;96617.17;;;;
2019/09/13 02:19:02;;;;;;;7.600001;6.9;;;;;;;11.73;100;96617.17;;;;
2019/09/13 02:20:04;;;;;;;7.149999;6.45;;;;;;;11.74;100;96613.01;;;;
2019/09/13 02:21:05;;;;;;;7.149999;6.45;;;;;;;11.74;100;96613.01;;;;
2019/09/13 02:22:06;;;;;;;7.85;7.100001;;;;;;;11.79;100;96616.76;;;;
2019/09/13 02:23:07;;;;;;;7.85;7.100001;;;;;;;11.79;100;96616.76;;;;
2019/09/13 02:24:09;;;;;;;7.85;7.100001;;;;;;;11.79;100;96616.76;;;;
2019/09/13 02:25:10;;;;;;;7;6.350001;;;;;;;11.83;100;96608.53;;;;
2019/09/13 02:26:13;;;;;;;7;6.350001;;;;;;;11.83;100;96608.53;;;;
2019/09/13 02:27:14;;;;;;;7;6.350001;;;;;;;11.83;100;96608.53;;;;
2019/09/13 02:28:15;;;;;;;7;6.350001;;;;;;;11.83;100;96608.53;;;;
2019/09/13 02:29:16;;;;;;;7;6.350001;;;;;;;11.83;100;96608.53;;;;
2019/09/13 02:30:17;;;;;;;7;6.350001;;;;;;;11.83;100;96608.53;;;;
2019/09/13 02:31:20;;;;;;;7;6.350001;;;;;;;11.83;100;96608.53;;;;
2019/09/13 02:32:21;;;;;;;7;6.350001;;;;;;;11.83;100;96608.53;;;;
2019/09/13 02:33:22;;;;;;;7;6.350001;;;;;;;11.83;100;96608.53;;;;
2019/09/13 02:34:23;;;;;;;7;6.350001;;;;;;;11.83;100;96608.53;;;;
2019/09/13 02:35:24;;;;;;;8;6.75;;;;;;;11.59;100;96619.46;;;;
2019/09/13 02:36:26;;;;;;;8;6.75;;;;;;;11.59;100;96619.46;;;;
2019/09/13 02:37:27;;;;;;;8;6.75;;;;;;;11.59;100;96619.46;;;;
2019/09/13 02:38:28;;;;;;;7.45;6.749999;;;;;;;11.6;100;96615.83;;;;
2019/09/13 02:39:29;;;;;;;7.45;6.749999;;;;;;;11.6;100;96615.83;;;;
2019/09/13 02:40:31;;;;;;;7.45;6.749999;;;;;;;11.6;100;96615.83;;;;
2019/09/13 02:41:32;;;;;;;7.45;6.749999;;;;;;;11.6;100;96615.83;;;;
2019/09/13 02:42:33;;;;;;;7.45;6.749999;;;;;;;11.6;100;96615.83;;;;
2019/09/13 02:43:34;;;;;;;7.45;6.749999;;;;;;;11.6;100;96615.83;;;;
2019/09/13 02:44:35;;;;;;;7.45;6.749999;;;;;;;11.6;100;96615.83;;;;
2019/09/13 02:45:37;;;;;;;7.45;6.749999;;;;;;;11.6;100;96615.83;;;;
2019/09/13 02:46:38;;;;;;;7.45;6.749999;;;;;;;11.6;100;96615.83;;;;
2019/09/13 02:47:40;;;;;;;7.45;6.749999;;;;;;;11.6;100;96615.83;;;;
2019/09/13 02:48:41;;;;;;;8.25;7.45;;;;;;;11.47;100;96620.72;;;;
2019/09/13 02:49:42;;;;;;;8.25;7.45;;;;;;;11.47;100;96620.72;;;;
2019/09/13 02:50:43;;;;;;;8.25;7.45;;;;;;;11.47;100;96620.72;;;;
2019/09/13 02:51:45;;;;;;;7.95;7.15;;;;;;;11.5;100;96619.87;;;;
2019/09/13 02:52:46;;;;;;;7.95;7.15;;;;;;;11.5;100;96619.87;;;;
2019/09/13 02:53:47;;;;;;;8.25;7.450001;;;;;;;11.58;100;96615.2;;;;
2019/09/13 02:54:48;;;;;;;8.25;7.450001;;;;;;;11.58;100;96615.2;;;;
2019/09/13 02:55:49;;;;;;;8.25;7.450001;;;;;;;11.58;100;96615.2;;;;
2019/09/13 02:56:50;;;;;;;8;7.2;;;;;;;11.65;100;96618.33;;;;
2019/09/13 02:57:52;;;;;;;8;7.2;;;;;;;11.65;100;96618.33;;;;
2019/09/13 02:58:53;;;;;;;8;7.2;;;;;;;11.65;100;96618.33;;;;
2019/09/13 02:59:54;;;;;;;8;7.2;;;;;;;11.65;100;96618.33;;;;
2019/09/13 03:00:55;;;;;;;8;7.2;;;;;;;11.65;100;96618.33;;;;
2019/09/13 03:01:56;;;;;;;8;7.2;;;;;;;11.65;100;96618.33;;;;
2019/09/13 03:02:57;;;;;;;8;7.2;;;;;;;11.65;100;96618.33;;;;
2019/09/13 03:03:59;;;;;;;8;7.2;;;;;;;11.65;100;96618.33;;;;
2019/09/13 03:05:00;;;;;;;8;7.2;;;;;;;11.65;100;96618.33;;;;
2019/09/13 03:06:01;;;;;;;8;7.2;;;;;;;11.65;100;96618.33;;;;
2019/09/13 03:07:02;;;;;;;8.1;7.299999;;;;;;;11.5;100;96629.76;;;;
2019/09/13 03:08:04;;;;;;;8.1;7.299999;;;;;;;11.5;100;96629.76;;;;
2019/09/13 03:09:05;;;;;;;8.1;7.299999;;;;;;;11.5;100;96629.76;;;;
2019/09/13 03:10:06;;;;;;;8.199999;7.400001;;;;;;;11.54;100;96634.23;;;;
2019/09/13 03:11:08;;;;;;;8.199999;7.400001;;;;;;;11.54;100;96634.23;;;;
2019/09/13 03:12:09;;;;;;;8.199999;7.400001;;;;;;;11.54;100;96634.23;;;;
2019/09/13 03:13:10;;;;;;;8.199999;7.400001;;;;;;;11.54;100;96634.23;;;;
2019/09/13 03:14:12;;;;;;;8.199999;7.400001;;;;;;;11.54;100;96634.23;;;;
2019/09/13 03:15:13;;;;;;;8.199999;7.400001;;;;;;;11.54;100;96634.23;;;;
2019/09/13 03:16:15;;;;;;;8.199999;7.400001;;;;;;;11.54;100;96634.23;;;;
2019/09/13 03:17:16;;;;;;;8.199999;7.400001;;;;;;;11.54;100;96634.23;;;;
2019/09/13 03:18:17;;;;;;;8.199999;7.400001;;;;;;;11.54;100;96634.23;;;;
2019/09/13 03:19:19;;;;;;;8.199999;7.400001;;;;;;;11.54;100;96634.23;;;;
2019/09/13 03:20:20;;;;;;;8.499998;7.599999;;;;;;;11.54;100;96636.84;;;;
2019/09/13 03:21:22;;;;;;;8.499998;7.599999;;;;;;;11.54;100;96636.84;;;;
2019/09/13 03:22:23;;;;;;;8.499998;7.599999;;;;;;;11.54;100;96636.84;;;;
2019/09/13 03:23:24;;;;;;;8.349999;6.749999;;;;;;;11.6;100;96638.28;;;;
2019/09/13 03:24:25;;;;;;;8.349999;6.749999;;;;;;;11.6;100;96638.28;;;;
2019/09/13 03:25:31;;;;;;;8.349999;6.749999;;;;;;;11.6;100;96638.28;;;;
2019/09/13 03:26:39;;;;;;;8.349999;6.749999;;;;;;;11.6;100;96638.28;;;;
2019/09/13 03:27:40;;;;;;;8.349999;6.749999;;;;;;;11.6;100;96638.28;;;;
2019/09/13 03:28:41;;;;;;;8.349999;6.749999;;;;;;;11.6;100;96638.28;;;;
2019/09/13 03:29:42;;;;;;;8.349999;6.749999;;;;;;;11.6;100;96638.28;;;;
2019/09/13 03:30:43;;;;;;;8.349999;6.749999;;;;;;;11.6;100;96638.28;;;;
2019/09/13 03:31:44;;;;;;;8.349999;6.749999;;;;;;;11.6;100;96638.28;;;;
2019/09/13 03:32:45;;;;;;;8.349999;6.749999;;;;;;;11.6;100;96638.28;;;;
2019/09/13 03:33:47;;;;;;;8.15;7.3;;;;;;;11.57;100;96637.77;;;;
2019/09/13 03:34:48;;;;;;;8.15;7.3;;;;;;;11.57;100;96637.77;;;;
2019/09/13 03:35:49;;;;;;;8.15;7.3;;;;;;;11.57;100;96637.77;;;;
2019/09/13 03:36:50;;;;;;;8.25;7.45;;;;;;;11.61;100;96635.9;;;;
2019/09/13 03:37:51;;;;;;;8.25;7.45;;;;;;;11.61;100;96635.9;;;;
2019/09/13 03:38:52;;;;;;;8.25;7.45;;;;;;;11.61;100;96635.9;;;;
2019/09/13 03:39:54;;;;;;;8.25;7.45;;;;;;;11.61;100;96635.9;;;;
2019/09/13 03:40:55;;;;;;;8.25;7.45;;;;;;;11.61;100;96635.9;;;;
2019/09/13 03:41:56;;;;;;;8.25;7.45;;;;;;;11.61;100;96635.9;;;;
2019/09/13 03:42:57;;;;;;;8.25;7.45;;;;;;;11.61;100;96635.9;;;;
2019/09/13 03:43:58;;;;;;;8.25;7.45;;;;;;;11.61;100;96635.9;;;;
2019/09/13 03:44:59;;;;;;;8.25;7.45;;;;;;;11.61;100;96635.9;;;;
2019/09/13 03:46:01;;;;;;;8.25;7.45;;;;;;;11.61;100;96635.9;;;;
2019/09/13 03:47:02;;;;;;;8.1;7.299999;;;;;;;11.56;100;96642.97;;;;
2019/09/13 03:48:03;;;;;;;8.1;7.299999;;;;;;;11.56;100;96642.97;;;;
2019/09/13 03:49:05;;;;;;;8.1;7.299999;;;;;;;11.56;100;96642.97;;;;
2019/09/13 03:50:06;;;;;;;8.000002;7.250001;;;;;;;11.58;100;96643.08;;;;
2019/09/13 03:51:08;;;;;;;8.000002;7.250001;;;;;;;11.58;100;96643.08;;;;
2019/09/13 03:52:09;;;;;;;7.900001;7.199999;;;;;;;11.67;100;96647.37;;;;
2019/09/13 03:53:10;;;;;;;7.900001;7.199999;;;;;;;11.67;100;96647.37;;;;
2019/09/13 03:54:11;;;;;;;7.900001;7.199999;;;;;;;11.67;100;96647.37;;;;
2019/09/13 03:55:12;;;;;;;8.3;7.5;;;;;;;11.74;100;96640.92;;;;
2019/09/13 03:56:14;;;;;;;8.3;7.5;;;;;;;11.74;100;96640.92;;;;
2019/09/13 03:57:15;;;;;;;8.3;7.5;;;;;;;11.74;100;96640.92;;;;
2019/09/13 03:58:16;;;;;;;8.3;7.5;;;;;;;11.74;100;96640.92;;;;
2019/09/13 03:59:17;;;;;;;8.3;7.5;;;;;;;11.74;100;96640.92;;;;
2019/09/13 04:00:19;;;;;;;8.3;7.5;;;;;;;11.74;100;96640.92;;;;
2019/09/13 04:01:21;;;;;;;8.3;7.5;;;;;;;11.74;100;96640.92;;;;
2019/09/13 04:02:22;;;;;;;8.3;7.5;;;;;;;11.74;100;96640.92;;;;
2019/09/13 04:03:23;;;;;;;8.3;7.5;;;;;;;11.74;100;96640.92;;;;
2019/09/13 04:04:24;;;;;;;8.3;7.5;;;;;;;11.74;100;96640.92;;;;
2019/09/13 04:05:26;;;;;;;8.450001;7.65;;;;;;;11.62;100;96644.85;;;;
2019/09/13 04:06:28;;;;;;;8.450001;7.65;;;;;;;11.62;100;96644.85;;;;
2019/09/13 04:07:29;;;;;;;8.450001;7.65;;;;;;;11.62;100;96644.85;;;;
2019/09/13 04:08:30;;;;;;;7.65;6.95;;;;;;;11.65;100;96643.11;;;;
2019/09/13 04:09:31;;;;;;;7.65;6.95;;;;;;;11.65;100;96643.11;;;;
2019/09/13 04:10:32;;;;;;;7.65;6.95;;;;;;;11.65;100;96643.11;;;;
2019/09/13 04:11:34;;;;;;;7.65;6.95;;;;;;;11.65;100;96643.11;;;;
2019/09/13 04:12:35;;;;;;;7.65;6.95;;;;;;;11.65;100;96643.11;;;;
2019/09/13 04:13:37;;;;;;;7.65;6.95;;;;;;;11.65;100;96643.11;;;;
2019/09/13 04:14:38;;;;;;;7.65;6.95;;;;;;;11.65;100;96643.11;;;;
2019/09/13 04:15:39;;;;;;;7.65;6.95;;;;;;;11.65;100;96643.11;;;;
2019/09/13 04:16:40;;;;;;;7.65;6.95;;;;;;;11.65;100;96643.11;;;;
2019/09/13 04:17:41;;;;;;;7.65;6.95;;;;;;;11.65;100;96643.11;;;;
2019/09/13 04:18:42;;;;;;;9.799999;7.65;;;;;;;11.57;100;96648.17;;;;
2019/09/13 04:19:44;;;;;;;9.799999;7.65;;;;;;;11.57;100;96648.17;;;;
2019/09/13 04:20:45;;;;;;;9.799999;7.65;;;;;;;11.57;100;96648.17;;;;
2019/09/13 04:21:46;;;;;;;9.599999;8.4;;;;;;;11.63;100;96656.91;;;;
2019/09/13 04:22:47;;;;;;;9.599999;8.4;;;;;;;11.63;100;96656.91;;;;
2019/09/13 04:23:48;;;;;;;9.599999;8.4;;;;;;;11.63;100;96656.91;;;;
2019/09/13 04:24:50;;;;;;;9.599999;8.4;;;;;;;11.63;100;96656.91;;;;
2019/09/13 04:25:51;;;;;;;9.599999;8.4;;;;;;;11.63;100;96656.91;;;;
2019/09/13 04:26:52;;;;;;;9.599999;8.4;;;;;;;11.63;100;96656.91;;;;
2019/09/13 04:27:53;;;;;;;9.599999;8.4;;;;;;;11.63;100;96656.91;;;;
2019/09/13 04:28:54;;;;;;;9.599999;8.4;;;;;;;11.63;100;96656.91;;;;
2019/09/13 04:29:55;;;;;;;9.599999;8.4;;;;;;;11.63;100;96656.91;;;;
2019/09/13 04:30:56;;;;;;;9.599999;8.4;;;;;;;11.63;100;96656.91;;;;
2019/09/13 04:31:58;;;;;;;8.5;7.649999;;;;;;;11.61;100;96658.89;;;;
2019/09/13 04:32:59;;;;;;;8.5;7.649999;;;;;;;11.61;100;96658.89;;;;
2019/09/13 04:34:00;;;;;;;8.5;7.649999;;;;;;;11.61;100;96658.89;;;;
2019/09/13 04:35:01;;;;;;;8;7.3;;;;;;;11.66;100;96658.7;;;;
2019/09/13 04:36:02;;;;;;;8;7.3;;;;;;;11.66;100;96658.7;;;;
2019/09/13 04:37:04;;;;;;;8;7.3;;;;;;;11.66;100;96658.7;;;;
2019/09/13 04:38:05;;;;;;;8;7.3;;;;;;;11.66;100;96658.7;;;;
2019/09/13 04:39:06;;;;;;;8;7.3;;;;;;;11.66;100;96658.7;;;;
2019/09/13 04:40:08;;;;;;;8;7.3;;;;;;;11.66;100;96658.7;;;;
2019/09/13 04:41:10;;;;;;;8;7.3;;;;;;;11.66;100;96658.7;;;;
2019/09/13 04:42:11;;;;;;;8;7.3;;;;;;;11.66;100;96658.7;;;;
2019/09/13 04:43:12;;;;;;;8;7.3;;;;;;;11.66;100;96658.7;;;;
2019/09/13 04:44:13;;;;;;;8;7.3;;;;;;;11.66;100;96658.7;;;;
2019/09/13 04:45:14;;;;;;;8.25;7.450001;;;;;;;11.6;100;96667.1;;;;
2019/09/13 04:46:16;;;;;;;8.25;7.450001;;;;;;;11.6;100;96667.1;;;;
2019/09/13 04:47:18;;;;;;;8.25;7.450001;;;;;;;11.6;100;96667.1;;;;
2019/09/13 04:48:19;;;;;;;8.25;7.050001;;;;;;;11.66;100;96680.89;;;;
2019/09/13 04:49:20;;;;;;;8.25;7.050001;;;;;;;11.66;100;96680.89;;;;
2019/09/13 04:50:21;;;;;;;8.25;7.050001;;;;;;;11.66;100;96680.89;;;;
2019/09/13 04:51:23;;;;;;;8.25;7.050001;;;;;;;11.66;100;96680.89;;;;
2019/09/13 04:52:24;;;;;;;8.25;7.050001;;;;;;;11.66;100;96680.89;;;;
2019/09/13 04:53:25;;;;;;;8.25;7.050001;;;;;;;11.66;100;96680.89;;;;
2019/09/13 04:54:26;;;;;;;8.25;7.050001;;;;;;;11.66;100;96680.89;;;;
2019/09/13 04:55:27;;;;;;;8.25;7.050001;;;;;;;11.66;100;96680.89;;;;
2019/09/13 04:56:31;;;;;;;8.25;7.050001;;;;;;;11.66;100;96680.89;;;;
2019/09/13 04:57:32;;;;;;;8.25;7.050001;;;;;;;11.66;100;96680.89;;;;
2019/09/13 04:58:33;;;;;;;7.500001;6.749999;;;;;;;11.65;100;96673.28;;;;
2019/09/13 04:59:34;;;;;;;7.500001;6.749999;;;;;;;11.65;100;96673.28;;;;
2019/09/13 05:00:36;;;;;;;7.500001;6.749999;;;;;;;11.65;100;96673.28;;;;
2019/09/13 05:01:39;;;;;;;8.1;7.299999;;;;;;;11.71;100;96670.26;;;;
2019/09/13 05:02:40;;;;;;;8.1;7.299999;;;;;;;11.71;100;96670.26;;;;
2019/09/13 05:03:41;;;;;;;8.1;7.299999;;;;;;;11.71;100;96670.26;;;;
2019/09/13 05:04:42;;;;;;;8.1;7.299999;;;;;;;11.71;100;96670.26;;;;
2019/09/13 05:05:43;;;;;;;8.1;7.299999;;;;;;;11.71;100;96670.26;;;;
2019/09/13 05:06:45;;;;;;;8.1;7.299999;;;;;;;11.71;100;96670.26;;;;
2019/09/13 05:07:46;;;;;;;8.1;7.299999;;;;;;;11.71;100;96670.26;;;;
2019/09/13 05:08:47;;;;;;;8.1;7.299999;;;;;;;11.71;100;96670.26;;;;
2019/09/13 05:09:49;;;;;;;8.1;7.299999;;;;;;;11.71;100;96670.26;;;;
2019/09/13 05:10:50;;;;;;;8.1;7.299999;;;;;;;11.71;100;96670.26;;;;
2019/09/13 05:11:51;;;;;;;8.249999;7.450001;;;;;;;11.73;100;96662.66;;;;
2019/09/13 05:12:52;;;;;;;8.249999;7.450001;;;;;;;11.73;100;96662.66;;;;
2019/09/13 05:13:53;;;;;;;8.249999;7.450001;;;;;;;11.73;100;96662.66;;;;
2019/09/13 05:14:55;;;;;;;8.400001;7.6;;;;;;;11.81;100;96669.31;;;;
2019/09/13 05:15:56;;;;;;;8.400001;7.6;;;;;;;11.81;100;96669.31;;;;
2019/09/13 05:16:57;;;;;;;8.400001;7.6;;;;;;;11.81;100;96669.31;;;;
2019/09/13 05:17:58;;;;;;;8.400001;7.6;;;;;;;11.81;100;96669.31;;;;
2019/09/13 05:18:59;;;;;;;8.400001;7.6;;;;;;;11.81;100;96669.31;;;;
2019/09/13 05:20:00;;;;;;;8.400001;7.6;;;;;;;11.81;100;96669.31;;;;
2019/09/13 05:21:02;;;;;;;8.400001;7.6;;;;;;;11.81;100;96669.31;;;;
2019/09/13 05:22:04;;;;;;;8.400001;7.6;;;;;;;11.81;100;96669.31;;;;
2019/09/13 05:23:05;;;;;;;8.400001;7.6;;;;;;;11.81;100;96669.31;;;;
2019/09/13 05:24:06;;;;;;;8.400001;7.6;;;;;;;11.81;100;96669.31;;;;
2019/09/13 05:25:08;;;;;;;7.8;7.000001;;;;;;;11.88;100;96663.37;;;;
2019/09/13 05:26:10;;;;;;;7.8;7.000001;;;;;;;11.88;100;96663.37;;;;
2019/09/13 05:27:11;;;;;;;7.8;7.000001;;;;;;;11.88;100;96663.37;;;;
2019/09/13 05:28:12;;;;;;;7.8;7.000001;;;;;;;11.88;100;96663.37;;;;
2019/09/13 05:29:13;;;;;;;7.8;7.000001;;;;;;;11.88;100;96663.37;;;;
2019/09/13 05:30:14;;;;;;;7.8;7.000001;;;;;;;11.88;100;96663.37;;;;
2019/09/13 05:31:16;;;;;;;7.8;7.000001;;;;;;;11.88;100;96663.37;;;;
2019/09/13 05:32:18;;;;;;;7.8;7.000001;;;;;;;11.88;100;96663.37;;;;
2019/09/13 05:33:19;;;;;;;7.8;7.000001;;;;;;;11.88;100;96663.37;;;;
2019/09/13 05:34:20;;;;;;;7.8;7.000001;;;;;;;11.88;100;96663.37;;;;
2019/09/13 05:35:21;;;;;;;7.8;7.000001;;;;;;;11.88;100;96663.37;;;;
2019/09/13 05:36:23;;;;;;;7.850001;7.1;;;;;;;12.03;100;96664.82;;;;
2019/09/13 05:37:24;;;;;;;7.850001;7.1;;;;;;;12.03;100;96664.82;;;;
2019/09/13 05:38:25;;;;;;;7.850001;7.1;;;;;;;12.03;100;96664.82;;;;
2019/09/13 05:39:26;;;;;;;7.850001;7.1;;;;;;;12.03;100;96664.82;;;;
2019/09/13 05:40:27;;;;;;;7.850001;7.1;;;;;;;12.03;100;96664.82;;;;
2019/09/13 05:41:30;;;;;;;7.850001;7.1;;;;;;;12.03;100;96664.82;;;;
2019/09/13 05:42:31;;;;;;;7.850001;7.1;;;;;;;12.03;100;96664.82;;;;
2019/09/13 05:43:33;;;;;;;7.850001;7.1;;;;;;;12.03;100;96664.82;;;;
2019/09/13 05:44:34;;;;;;;7.850001;7.1;;;;;;;12.03;100;96664.82;;;;
2019/09/13 05:45:35;;;;;;;7.850001;7.1;;;;;;;12.03;100;96664.82;;;;
2019/09/13 05:46:40;;;;;;;9.400001;7.65;;;;;;;12.17;100;96670.51;;;;
2019/09/13 05:47:41;;;;;;;9.400001;7.65;;;;;;;12.17;100;96670.51;;;;
2019/09/13 05:48:42;;;;;;;9.400001;7.65;;;;;;;12.17;100;96670.51;;;;
2019/09/13 05:49:43;;;;;;;9.400001;7.65;;;;;;;12.17;100;96670.51;;;;
2019/09/13 05:50:44;;;;;;;9.400001;7.65;;;;;;;12.17;100;96670.51;;;;
2019/09/13 05:51:47;;;;;;;9.400001;7.65;;;;;;;12.17;100;96670.51;;;;
2019/09/13 05:52:48;;;;;;;9.400001;7.65;;;;;;;12.17;100;96670.51;;;;
2019/09/13 05:53:49;;;;;;;9.400001;7.65;;;;;;;12.17;100;96670.51;;;;
2019/09/13 05:54:50;;;;;;;9.400001;7.65;;;;;;;12.17;100;96670.51;;;;
2019/09/13 05:55:52;;;;;;;9.400001;7.65;;;;;;;12.17;100;96670.51;;;;
2019/09/13 05:56:53;;;;;;;8.299998;7.500001;;;;;;;12.5;100;96679.49;;;;
2019/09/13 05:57:54;;;;;;;8.299998;7.500001;;;;;;;12.5;100;96679.49;;;;
2019/09/13 05:58:55;;;;;;;8.299998;7.500001;;;;;;;12.5;100;96679.49;;;;
2019/09/13 05:59:56;;;;;;;8.299998;7.500001;;;;;;;12.5;100;96679.49;;;;
2019/09/13 06:00:57;;;;;;;8.299998;7.500001;;;;;;;12.5;100;96679.49;;;;